Rock Hill, SC

12:57 AM EDT on August 31, 2014 (GMT -0400)
Winthrop University | Change Station
CLOSE
Current Station
Personal Weather Station
Location: Rock Hill, SC
Elevation: 665 ft
Nearby Weather Stations

Elev 665 ft 34.94 °N, 81.03 °W | Updated 0 second ago

Clear
Clear
77.2 °F
Feels Like 79 °F
N
0.0
Wind Variable Wind from SW
Gusts 0.0 mph

Today
High -- | Low -- °F
--% Chance of Precip.
Yesterday
High -- | Low -- °F
Precip. -- in
6:56 AM 7:52 PM
Waxing Crescent, 27% visible
Pressure 30.12 in
Visibility 10.0 miles
Clouds Clear
Heat Index 79 °F
Dew Point 67 °F
Humidity 71%
Rainfall 0.00 in
Snow Depth Not available.
UV 0 out of 12
Pollen 9.00 out of 12
Ozone Good
Flu Activity Not available.
METAR KUZA 310354Z AUTO 19006KT 10SM CLR 25/19 A3017 RMK AO2 SLP200 T02500194

More Conditions Fewer Conditions

Pressure 30.12 in
Visibility 10.0 miles
Clouds Clear
Heat Index 79 °F
Dew Point 67 °F
Humidity 71%
Rainfall 0.00 in
Snow Depth Not available.
UV 0 out of 12
Pollen 9.00 out of 12
Ozone Good
Flu Activity Not available.
METAR KUZA 310354Z AUTO 19006KT 10SM CLR 25/19 A3017 RMK AO2 SLP200 T02500194

More Conditions Fewer Conditions

10-Day Weather Forecast

Almanac

Astronomy

Aug. 31, 2014 Rise Set
Actual Time 6:56 AM EDT 7:52 PM EDT
Civil Twilight 6:30 AM EDT 8:17 PM EDT
Nautical Twilight 5:59 AM EDT 8:48 PM EDT
Astronomical Twilight 5:27 AM EDT 9:19 PM EDT
Moon 12:26 PM EDT 11:20 PM EDT
Length of Visible Light 13h 47m
Length of Day
12h 55m
Tomorrow will be 2m 5s shorter.
Waxing Crescent, 27% of the Moon is Illuminated
Today
Waxing Crescent
Sep 2
First Quarter
Sep 8
Full
Sep 15
Last Quarter
Sep 24
New

Today's Extremes

State Highs State Lows

Community

WunderPhotos

Upload Photos

1,748,783 photos uploaded!

Nearby

Air Quality

  Air Quality AQ Index Pollutant
Yesterday Moderate
OZONE
Current Good
OZONE
Saturday Good
OZONE
Sunday Good
OZONE

Snow Depth

Station Depth Elevation
No new snow has been reported.

Earthquake Activity

City Distance Mag. Time & Date
No recent earthquake activity has been reported nearby.
Minimum magnitude displayed is 2.5.

Coastal Water Temperatures

Place Temperature
No Stations Reporting

Nearby Weather Stations